Terminal Aerodrome Forecast
Issued by NWS Wilmington, NC

Home | Current Version | Previous Version | Text Only | Print | Product List | Glossary On
Versions: 1 2 3 4 5 6 7 8 9 10 11 12 13 14 15 16
677
FTUS42 KILM 251120
TAFILM
TAF
KILM 251120Z 2512/2612 26006KT P6SM SCT040
     FM251500 20005KT P6SM BKN040
     FM251900 18009KT P6SM VCTS BKN040CB
      TEMPO 2519/2523 4SM TSRA BKN020CB
     FM260300 00000KT P6SM SCT040
     FM260900 06004KT 3SM BR SCT006=

USA.gov is the U.S. government's official web portal to all federal, state and local government web resources and services.